Hlavní strana
METAR-TAF:

METAR-TAF

Letiště :

Letecká základna

Morón de la Frontera, Španělsko

zeměpisná šířka: 37-09N, zeměpisná délka: 005-37W, výška: 87 m

Aktuální stav počasí

Zpráva byla vytvořena před 32 minutami, v 09:00 UTC
vítr z různých směrů 2 kt
Teplota 15°C
Vlhkost vzduchu 82%
Tlak 1021 hPa
Viditelnost 10 km a více
Oblačno až skoro zataženo ve výšce 2500 ft

METAR: LEMO 060900Z VRB02KT 9999 BKN025 15/12 Q1021 NOSIG

Čas: 11:32 (09:32 UTC)

Předpověď počasí

Zpráva byla vytvořena před 1 hodinou a 32 minutami, v 08:00 UTC
Předpověď platná od 06 v 09 UTC do 06 v 18 UTC
Jihozápadní vítr 6 kt
Viditelnost 10 km a více
Polojasno ve výšce 3000 ft
Pravděpodobnost 30% :
Dočasný
od 06 v 09 UTC do 06 v 12 UTC
Viditelnost: 4000 m
Oblačno až skoro zataženo ve výšce 1400 ft
slabý déšť

TAF: LEMO 060800Z 0609/0618 23006KT 9999 SCT030 PROB30 TEMPO 0609/0612 4000 -RA BKN014

Stav a předpovědi počasí z více než 4 000 letišť (zprávy METAR a TAF).

Červené a žluté tečky na mapě představují dostupné meteorologické stanice.

Když kurzor umístíte na tečku, zobrazí se název stanice.

Pak kliknutím zobrazíte stav a předpověď počasí.

Chcete-li změnit mapu, kliknutím na zelené tlačítko se znaménkem +mapu přiblížíte, kliknutím na zelené tlačítko se znaménkem – mapu oddálíte a kliknutím na zelené šipky přejdete na sousední mapy.


METAR-TAF: